createdAt,value
2022-11-03T00:01:37.895Z,100692.84
2022-11-03T00:04:08.251Z,100697.22
2022-11-03T00:06:38.086Z,100691.00
2022-11-03T00:09:11.683Z,100687.50
2022-11-03T00:11:42.770Z,100693.34
2022-11-03T00:14:13.181Z,100680.59
2022-11-03T00:16:42.886Z,100684.13
2022-11-03T00:19:14.524Z,100688.44
2022-11-03T00:21:44.129Z,100680.00
2022-11-03T00:24:16.743Z,100684.28
2022-11-03T00:26:46.315Z,100670.13
2022-11-03T00:29:17.341Z,100671.00
2022-11-03T00:31:47.758Z,100668.34
2022-11-03T00:34:17.288Z,100672.00
2022-11-03T00:36:47.473Z,100672.00
2022-11-03T00:39:19.686Z,100670.28
2022-11-03T00:41:49.306Z,100666.63
2022-11-03T00:44:18.891Z,100671.06
2022-11-03T00:46:48.611Z,100664.84
2022-11-03T00:49:18.218Z,100671.25
2022-11-03T00:51:47.802Z,100657.94
2022-11-03T00:54:19.967Z,100659.84
2022-11-03T00:56:49.524Z,100661.63
2022-11-03T00:59:19.327Z,100658.28
2022-11-03T01:01:49.022Z,100651.28
2022-11-03T01:04:31.829Z,100651.38
2022-11-03T01:07:03.476Z,100658.50
2022-11-03T01:09:38.588Z,100654.06
2022-11-03T01:12:10.345Z,100660.50
2022-11-03T01:14:42.008Z,100643.72
2022-11-03T01:17:13.326Z,100647.06
2022-11-03T01:19:42.907Z,100644.66
2022-11-03T01:22:12.886Z,100640.06
2022-11-03T01:24:45.734Z,100639.88
2022-11-03T01:27:17.498Z,100633.59
2022-11-03T01:29:47.395Z,100624.56
2022-11-03T01:32:17.090Z,100630.28
2022-11-03T01:34:46.642Z,100625.00
2022-11-03T01:37:16.149Z,100626.16
2022-11-03T01:39:48.287Z,100617.03
2022-11-03T01:42:17.837Z,100612.81
2022-11-03T01:44:49.732Z,100617.31
2022-11-03T01:47:25.789Z,100606.69
2022-11-03T01:49:58.371Z,100597.66
2022-11-03T01:52:30.922Z,100606.59
2022-11-03T01:55:05.751Z,100602.06
2022-11-03T01:57:38.106Z,100586.97
2022-11-03T02:00:09.604Z,100577.91
2022-11-03T02:02:45.557Z,100578.97
2022-11-03T02:05:16.068Z,100575.63
2022-11-03T02:07:49.724Z,100579.50
2022-11-03T02:10:22.026Z,100566.78
2022-11-03T02:12:51.904Z,100569.06
2022-11-03T02:15:23.394Z,100561.34
2022-11-03T02:17:54.739Z,100557.84
2022-11-03T02:20:27.028Z,100553.50
2022-11-03T02:23:17.393Z,100551.44
2022-11-03T02:25:50.507Z,100559.56
2022-11-03T02:28:21.700Z,100548.38
2022-11-03T02:30:56.867Z,100542.16
2022-11-03T02:33:34.634Z,100543.00
2022-11-03T02:36:09.490Z,100532.44
2022-11-03T02:38:45.850Z,100513.81
2022-11-03T02:41:19.140Z,100518.44
2022-11-03T02:43:49.680Z,100520.97
2022-11-03T02:46:20.168Z,100510.53
2022-11-03T02:48:50.925Z,100505.31
2022-11-03T02:51:20.585Z,100504.38
2022-11-03T02:53:59.513Z,100500.84
2022-11-03T02:56:33.405Z,100492.97
2022-11-03T02:59:05.247Z,100487.56
2022-11-03T03:01:37.387Z,100484.13
2022-11-03T03:04:09.088Z,100495.69
2022-11-03T03:06:41.595Z,100493.06
2022-11-03T03:09:19.858Z,100481.56
2022-11-03T03:11:54.044Z,100478.69
2022-11-03T03:14:27.228Z,100474.09
2022-11-03T03:17:01.757Z,100472.31
2022-11-03T03:19:44.594Z,100476.53
2022-11-03T03:22:19.205Z,100467.00
2022-11-03T03:24:52.837Z,100467.13
2022-11-03T03:27:30.974Z,100464.28
2022-11-03T03:30:04.411Z,100455.41
2022-11-03T03:32:38.615Z,100458.81
2022-11-03T03:35:11.911Z,100461.63
2022-11-03T03:37:43.987Z,100452.69
2022-11-03T03:40:18.977Z,100445.78
2022-11-03T03:42:51.949Z,100453.53
2022-11-03T03:45:22.657Z,100447.19
2022-11-03T03:47:57.345Z,100435.78
2022-11-03T03:50:28.620Z,100434.13
2022-11-03T03:52:59.609Z,100436.53
2022-11-03T03:55:37.465Z,100426.91
2022-11-03T03:58:10.309Z,100434.75
2022-11-03T04:00:41.772Z,100432.28
2022-11-03T04:03:16.862Z,100425.25
2022-11-03T04:05:46.666Z,100425.97
2022-11-03T04:08:16.781Z,100411.66
2022-11-03T04:11:07.165Z,100405.44
2022-11-03T04:13:51.774Z,100410.72
2022-11-03T04:16:33.805Z,100408.09
2022-11-03T04:19:15.997Z,100412.38
2022-11-03T04:21:58.039Z,100409.75
2022-11-03T04:24:27.581Z,100413.78
2022-11-03T04:26:57.361Z,100397.84
2022-11-03T04:29:30.074Z,100406.84
2022-11-03T04:31:59.649Z,100397.94
2022-11-03T04:34:29.295Z,100399.16
2022-11-03T04:36:59.263Z,100395.19
2022-11-03T04:39:28.839Z,100394.44
2022-11-03T04:41:58.468Z,100391.00
2022-11-03T04:44:31.082Z,100385.78
2022-11-03T04:47:00.625Z,100393.41
2022-11-03T04:49:30.249Z,100386.50
2022-11-03T04:51:59.806Z,100387.03
2022-11-03T04:54:29.702Z,100387.88
2022-11-03T04:56:59.439Z,100390.94
2022-11-03T04:59:31.696Z,100383.78
2022-11-03T05:02:01.868Z,100372.44
2022-11-03T05:04:31.676Z,100382.06
2022-11-03T05:07:01.245Z,100369.81
2022-11-03T05:09:32.973Z,100372.50
2022-11-03T05:12:02.530Z,100372.59
2022-11-03T05:14:35.223Z,100368.25
2022-11-03T05:17:05.692Z,100360.94
2022-11-03T05:19:37.178Z,100349.16
2022-11-03T05:22:08.131Z,100346.53
2022-11-03T05:24:38.617Z,100342.34
2022-11-03T05:27:09.023Z,100341.19
2022-11-03T05:29:41.417Z,100334.78
2022-11-03T05:32:14.496Z,100327.63
2022-11-03T05:34:46.242Z,100322.25
2022-11-03T05:37:27.184Z,100328.19
2022-11-03T05:39:59.469Z,100327.34
2022-11-03T05:42:36.970Z,100322.06
2022-11-03T05:45:18.382Z,100316.94
2022-11-03T05:47:47.986Z,100308.66
2022-11-03T05:50:21.710Z,100305.03
2022-11-03T05:52:52.837Z,100294.38
2022-11-03T05:55:28.502Z,100300.75
2022-11-03T05:57:59.358Z,100305.03
2022-11-03T06:00:35.534Z,100297.25
2022-11-03T06:03:05.231Z,100302.22
2022-11-03T06:05:35.942Z,100286.88
2022-11-03T06:08:09.561Z,100290.59
2022-11-03T06:10:43.347Z,100284.56
2022-11-03T06:13:16.830Z,100285.41
2022-11-03T06:15:50.789Z,100281.41
2022-11-03T06:18:24.372Z,100284.06
2022-11-03T06:20:55.585Z,100282.25
2022-11-03T06:23:25.653Z,100273.41
2022-11-03T06:25:56.971Z,100270.34
2022-11-03T06:28:28.733Z,100265.13
2022-11-03T06:31:00.868Z,100259.84
2022-11-03T06:33:32.219Z,100265.22
2022-11-03T06:36:03.669Z,100262.56
2022-11-03T06:38:33.767Z,100262.06
2022-11-03T06:41:03.492Z,100255.06
2022-11-03T06:43:39.702Z,100253.19
2022-11-03T06:46:15.978Z,100255.66
2022-11-03T06:48:45.549Z,100247.66
2022-11-03T06:51:18.586Z,100245.44
2022-11-03T06:53:48.307Z,100235.72
2022-11-03T06:56:19.735Z,100232.97
2022-11-03T06:58:50.901Z,100233.59
2022-11-03T07:01:25.664Z,100237.06
2022-11-03T07:03:59.162Z,100247.75
2022-11-03T07:06:31.809Z,100237.06
2022-11-03T07:09:04.995Z,100242.38
2022-11-03T07:11:37.926Z,100231.13
2022-11-03T07:14:15.022Z,100221.97
2022-11-03T07:16:49.014Z,100226.16
2022-11-03T07:19:22.291Z,100208.31
2022-11-03T07:21:53.373Z,100213.59
2022-11-03T07:24:25.575Z,100214.75
2022-11-03T07:26:57.708Z,100210.97
2022-11-03T07:29:29.848Z,100212.00
2022-11-03T07:32:02.948Z,100206.38
2022-11-03T07:34:35.658Z,100209.78
2022-11-03T07:37:05.377Z,100204.50
2022-11-03T07:39:37.898Z,100196.97
2022-11-03T07:42:15.977Z,100189.97
2022-11-03T07:44:45.690Z,100197.06
2022-11-03T07:47:21.812Z,100186.56
2022-11-03T07:49:51.390Z,100187.75
2022-11-03T07:52:24.591Z,100188.75
2022-11-03T07:54:56.912Z,100173.56
2022-11-03T07:57:30.454Z,100168.78
2022-11-03T08:00:05.381Z,100167.56
2022-11-03T08:02:51.825Z,100165.41
2022-11-03T08:05:22.243Z,100167.88
2022-11-03T08:07:51.934Z,100156.06
2022-11-03T08:10:21.743Z,100153.06
2022-11-03T08:12:51.357Z,100154.66
2022-11-03T08:15:20.971Z,100151.56
2022-11-03T08:17:56.157Z,100145.75
2022-11-03T08:20:27.326Z,100136.06
2022-11-03T08:23:24.068Z,100149.31
2022-11-03T08:25:46.778Z,100134.75
2022-11-03T08:28:16.331Z,100137.13
2022-11-03T08:30:45.899Z,100132.69
2022-11-03T08:33:18.270Z,100133.06
2022-11-03T08:35:47.945Z,100134.59
2022-11-03T08:38:17.533Z,100133.75
2022-11-03T08:40:50.160Z,100110.75
2022-11-03T08:43:23.803Z,100105.00
2022-11-03T08:45:53.832Z,100110.09
2022-11-03T08:48:27.282Z,100109.13
2022-11-03T08:50:58.003Z,100115.09
2022-11-03T08:53:29.133Z,100117.94
2022-11-03T08:55:58.958Z,100109.81
2022-11-03T08:58:28.659Z,100110.56
2022-11-03T09:00:58.209Z,100094.88
2022-11-03T09:03:30.440Z,100092.47
2022-11-03T09:06:00.042Z,100086.06
2022-11-03T09:11:19.322Z,100080.38
2022-11-03T09:13:48.943Z,100066.72
2022-11-03T09:16:18.766Z,100060.38
2022-11-03T09:18:50.887Z,100061.69
2022-11-03T09:21:20.425Z,100045.47
2022-11-03T09:23:50.069Z,100043.47
2022-11-03T09:26:20.165Z,100038.31
2022-11-03T09:28:50.042Z,100045.88
2022-11-03T09:31:19.910Z,100029.44
2022-11-03T09:33:52.063Z,100044.19
2022-11-03T09:36:21.635Z,100028.09
2022-11-03T09:38:51.165Z,100011.09
2022-11-03T09:41:26.945Z,100011.75
2022-11-03T09:44:05.169Z,99994.28
2022-11-03T09:46:35.228Z,99992.78
2022-11-03T09:49:07.957Z,99993.53
2022-11-03T09:51:38.699Z,99987.81
2022-11-03T09:54:08.586Z,99975.38
2022-11-03T09:56:39.610Z,99968.16
2022-11-03T09:59:17.952Z,99989.84
2022-11-03T10:01:49.973Z,99964.78
2022-11-03T10:04:25.708Z,99967.53
2022-11-03T10:06:55.362Z,99952.16
2022-11-03T10:09:25.343Z,99960.44
2022-11-03T10:11:56.089Z,99951.31
2022-11-03T10:14:26.031Z,99964.88
2022-11-03T10:17:00.324Z,99938.47
2022-11-03T10:19:32.584Z,99918.38
2022-11-03T10:22:02.101Z,99901.81
2022-11-03T10:24:31.631Z,99919.66
2022-11-03T10:27:01.555Z,99898.72
2022-11-03T10:29:35.913Z,99887.78
2022-11-03T10:32:33.505Z,99870.44
2022-11-03T10:35:06.836Z,99880.31
2022-11-03T10:37:39.883Z,99870.94
2022-11-03T10:40:47.951Z,99866.47
2022-11-03T10:43:18.176Z,99879.63
2022-11-03T10:45:49.634Z,99887.38
2022-11-03T10:48:19.228Z,99866.34
2022-11-03T10:50:48.745Z,99858.28
2022-11-03T10:53:20.829Z,99859.88
2022-11-03T10:55:53.975Z,99856.25
2022-11-03T10:58:23.519Z,99849.84
2022-11-03T11:00:53.143Z,99836.13
2022-11-03T11:03:22.754Z,99809.22
2022-11-03T11:05:52.682Z,99799.00
2022-11-03T11:08:25.009Z,99793.91
2022-11-03T11:10:57.541Z,99807.81
2022-11-03T11:13:31.273Z,99795.38
2022-11-03T11:16:02.022Z,99800.72
2022-11-03T11:19:14.262Z,99783.09
2022-11-03T11:22:08.343Z,99775.28
2022-11-03T11:25:00.251Z,99762.03
2022-11-03T11:28:05.269Z,99744.75
2022-11-03T11:31:01.387Z,99759.00
2022-11-03T11:33:33.046Z,99749.22
2022-11-03T11:36:09.023Z,99757.44
2022-11-03T11:38:58.189Z,99753.69
2022-11-03T11:41:57.863Z,99755.41
2022-11-03T11:44:57.103Z,99755.66
2022-11-03T11:47:32.221Z,99771.59
2022-11-03T11:50:22.606Z,99771.22
2022-11-03T11:52:56.237Z,99748.88
2022-11-03T11:55:31.720Z,99752.03
2022-11-03T11:58:02.624Z,99748.88
2022-11-03T12:00:33.613Z,99752.63
2022-11-03T12:03:08.026Z,99731.69
2022-11-03T12:05:38.386Z,99724.59
2022-11-03T12:08:21.255Z,99723.97
2022-11-03T12:10:57.996Z,99714.75
2022-11-03T12:13:51.619Z,99690.97
2022-11-03T12:16:35.027Z,99685.75
2022-11-03T12:19:34.668Z,99681.63
2022-11-03T12:22:07.497Z,99668.59
2022-11-03T12:24:49.305Z,99661.34
2022-11-03T12:27:38.530Z,99656.53
2022-11-03T12:30:11.542Z,99646.38
2022-11-03T12:32:41.118Z,99663.53
2022-11-03T12:35:13.585Z,99646.63
2022-11-03T12:37:46.256Z,99625.22
2022-11-03T12:40:16.600Z,99622.22
2022-11-03T12:42:46.316Z,99612.06
2022-11-03T12:45:16.289Z,99596.97
2022-11-03T12:47:45.920Z,99589.50
2022-11-03T12:50:15.603Z,99598.19
2022-11-03T12:52:47.882Z,99581.13
2022-11-03T12:55:17.659Z,99569.53
2022-11-03T12:57:47.637Z,99577.41
2022-11-03T13:00:18.538Z,99581.25
2022-11-03T13:02:48.232Z,99580.41
2022-11-03T13:05:18.011Z,99570.28
2022-11-03T13:07:50.227Z,99558.19
2022-11-03T13:10:19.778Z,99539.00
2022-11-03T13:12:50.608Z,99541.91
2022-11-03T13:15:20.494Z,99551.81
2022-11-03T13:18:12.408Z,99542.78
2022-11-03T13:20:40.090Z,99526.59
2022-11-03T13:23:12.232Z,99517.78
2022-11-03T13:25:41.968Z,99505.72
2022-11-03T13:28:11.586Z,99505.59
2022-11-03T13:30:41.460Z,99499.31
2022-11-03T13:33:11.287Z,99504.63
2022-11-03T13:35:41.094Z,99479.16
2022-11-03T13:38:13.319Z,99478.44
2022-11-03T13:40:56.250Z,99484.22
2022-11-03T13:43:26.881Z,99475.28
2022-11-03T13:45:58.585Z,99460.06
2022-11-03T13:51:18.993Z,99447.78
2022-11-03T13:59:30.488Z,99438.50
2022-11-03T14:04:49.691Z,99409.06
2022-11-03T14:07:19.309Z,99404.34
2022-11-03T14:09:51.451Z,99401.94
2022-11-03T14:12:34.578Z,99383.97
2022-11-03T14:15:05.838Z,99386.38
2022-11-03T14:17:36.053Z,99377.69
2022-11-03T14:20:06.098Z,99390.47
2022-11-03T14:22:35.798Z,99375.03
2022-11-03T14:25:09.657Z,99379.03
2022-11-03T14:27:39.377Z,99381.91
2022-11-03T14:30:10.607Z,99376.16
2022-11-03T14:32:40.232Z,99370.09
2022-11-03T14:35:10.660Z,99367.56
2022-11-03T14:37:40.391Z,99360.69
2022-11-03T14:40:33.917Z,99354.56
2022-11-03T14:43:01.062Z,99357.56
2022-11-03T14:45:30.771Z,99346.22
2022-11-03T14:48:00.404Z,99345.97
2022-11-03T14:50:30.025Z,99346.72
2022-11-03T14:53:00.072Z,99347.81
2022-11-03T14:55:32.375Z,99344.19
2022-11-03T14:58:02.020Z,99340.78
2022-11-03T15:00:31.610Z,99360.34
2022-11-03T15:03:01.305Z,99343.09
2022-11-03T15:05:43.296Z,99365.94
2022-11-03T15:08:12.955Z,99363.66
2022-11-03T15:10:46.081Z,99352.09
2022-11-03T15:13:15.800Z,99359.28
2022-11-03T15:15:46.017Z,99353.25
2022-11-03T15:18:15.872Z,99346.38
2022-11-03T15:20:46.084Z,99347.47
2022-11-03T15:26:08.661Z,99369.75
2022-11-03T15:28:38.732Z,99343.25
2022-11-03T15:31:08.842Z,99338.03
2022-11-03T15:33:38.418Z,99350.22
2022-11-03T15:36:08.608Z,99345.63
2022-11-03T15:38:38.520Z,99336.19
2022-11-03T15:41:19.800Z,99331.56
2022-11-03T15:43:50.478Z,99332.81
2022-11-03T15:46:20.785Z,99333.00
2022-11-03T15:48:51.110Z,99320.91
2022-11-03T15:51:20.733Z,99324.09
2022-11-03T15:53:56.718Z,99306.25
2022-11-03T15:56:30.655Z,99310.16
2022-11-03T15:59:00.328Z,99292.31
2022-11-03T16:01:30.043Z,99294.25
2022-11-03T16:04:02.092Z,99286.00
2022-11-03T16:07:06.681Z,99278.19
2022-11-03T16:09:21.589Z,99278.38
2022-11-03T16:11:53.758Z,99265.34
2022-11-03T16:14:23.334Z,99268.06
2022-11-03T16:16:52.891Z,99252.72
2022-11-03T16:19:22.602Z,99252.72
2022-11-03T16:21:52.166Z,99247.69
2022-11-03T16:24:21.823Z,99239.88
2022-11-03T16:26:53.950Z,99233.63
2022-11-03T16:29:23.505Z,99243.91
2022-11-03T16:31:53.503Z,99235.75
2022-11-03T16:34:23.047Z,99230.75
2022-11-03T16:36:52.691Z,99226.53
2022-11-03T16:39:22.370Z,99228.88
2022-11-03T16:41:56.359Z,99231.34
2022-11-03T16:44:25.946Z,99227.09
2022-11-03T16:46:55.568Z,99225.16
2022-11-03T16:49:25.177Z,99225.28
2022-11-03T16:51:54.814Z,99222.31
2022-11-03T16:54:24.369Z,99210.41
2022-11-03T16:56:56.548Z,99217.44
2022-11-03T16:59:26.568Z,99220.97
2022-11-03T17:01:56.897Z,99215.75
2022-11-03T17:04:26.661Z,99223.06
2022-11-03T17:06:56.330Z,99198.75
2022-11-03T17:09:25.906Z,99201.41
2022-11-03T17:11:58.499Z,99202.97
2022-11-03T17:14:28.098Z,99197.69
2022-11-03T17:17:00.266Z,99191.44
2022-11-03T17:19:30.453Z,99192.41
2022-11-03T17:22:00.090Z,99187.13
2022-11-03T17:24:29.729Z,99182.56
2022-11-03T17:27:04.172Z,99182.91
2022-11-03T17:29:37.138Z,99175.19
2022-11-03T17:32:09.998Z,99164.88
2022-11-03T17:34:40.431Z,99163.91
2022-11-03T17:37:10.537Z,99153.47
2022-11-03T17:39:41.768Z,99153.50
2022-11-03T17:42:21.477Z,99146.53
2022-11-03T17:44:54.474Z,99142.63
2022-11-03T17:47:25.810Z,99146.78
2022-11-03T17:49:55.472Z,99147.38
2022-11-03T17:52:28.614Z,99145.28
2022-11-03T17:55:00.479Z,99137.06
2022-11-03T17:57:32.858Z,99137.78
2022-11-03T18:00:03.205Z,99142.78
2022-11-03T18:02:41.185Z,99137.47
2022-11-03T18:05:22.158Z,99137.66
2022-11-03T18:07:52.992Z,99136.81
2022-11-03T18:10:22.923Z,99134.72
2022-11-03T18:13:07.721Z,99123.72
2022-11-03T18:15:39.303Z,99115.69
2022-11-03T18:18:16.360Z,99119.16
2022-11-03T18:20:53.665Z,99117.38
2022-11-03T18:23:25.346Z,99118.19
2022-11-03T18:25:55.901Z,99106.22
2022-11-03T18:28:28.428Z,99117.13
2022-11-03T18:30:59.367Z,99114.84
2022-11-03T18:33:30.434Z,99118.00
2022-11-03T18:36:00.337Z,99107.50
2022-11-03T18:38:30.927Z,99114.41
2022-11-03T18:41:00.573Z,99109.66
2022-11-03T18:43:33.716Z,99102.69
2022-11-03T18:46:03.238Z,99106.78
2022-11-03T18:48:33.046Z,99101.50
2022-11-03T18:51:02.720Z,99105.94
2022-11-03T18:53:34.068Z,99110.41
2022-11-03T18:56:08.587Z,99101.38
2022-11-03T18:58:40.950Z,99099.59
2022-11-03T19:01:13.953Z,99090.50
2022-11-03T19:03:43.561Z,99093.81
2022-11-03T19:06:13.516Z,99102.59
2022-11-03T19:08:44.153Z,99098.13
2022-11-03T19:11:14.153Z,99096.06
2022-11-03T19:13:47.611Z,99088.84
2022-11-03T19:16:19.995Z,99085.03
2022-11-03T19:18:49.829Z,99078.16
2022-11-03T19:21:21.560Z,99088.00
2022-11-03T19:23:55.473Z,99083.38
2022-11-03T19:26:33.583Z,99074.56
2022-11-03T19:29:08.567Z,99075.75
2022-11-03T19:31:40.579Z,99069.75
2022-11-03T19:34:11.380Z,99063.50
2022-11-03T19:36:41.552Z,99078.53
2022-11-03T19:39:16.196Z,99069.31
2022-11-03T19:41:58.201Z,99066.88
2022-11-03T19:44:30.432Z,99068.69
2022-11-03T19:47:00.062Z,99058.94
2022-11-03T19:49:29.898Z,99064.16
2022-11-03T19:52:00.843Z,99064.72
2022-11-03T19:54:30.435Z,99060.03
2022-11-03T19:57:00.013Z,99048.97
2022-11-03T19:59:32.240Z,99047.19
2022-11-03T20:02:01.911Z,99045.38
2022-11-03T20:04:31.614Z,99043.06
2022-11-03T20:07:01.257Z,99036.94
2022-11-03T20:09:31.253Z,99037.16
2022-11-03T20:12:04.470Z,99031.53
2022-11-03T20:14:37.099Z,99040.78
2022-11-03T20:17:14.639Z,99043.28
2022-11-03T20:19:44.196Z,99038.22
2022-11-03T20:22:17.944Z,99039.06
2022-11-03T20:24:48.010Z,99029.25
2022-11-03T20:27:23.385Z,99037.38
2022-11-03T20:29:56.060Z,99025.84
2022-11-03T20:32:25.698Z,99029.34
2022-11-03T20:34:55.278Z,99032.72
2022-11-03T20:37:24.937Z,99021.19
2022-11-03T20:39:54.569Z,99024.56
2022-11-03T20:42:25.825Z,99021.81
2022-11-03T20:44:58.576Z,99028.28
2022-11-03T20:47:28.928Z,99039.25
2022-11-03T20:49:58.585Z,99038.78
2022-11-03T20:52:28.231Z,99036.06
2022-11-03T20:54:57.808Z,99031.50
2022-11-03T20:57:27.371Z,99036.91
2022-11-03T20:59:59.538Z,99045.03
2022-11-03T21:02:29.803Z,99039.84
2022-11-03T21:05:00.106Z,99047.06
2022-11-03T21:07:29.738Z,99039.97
2022-11-03T21:09:59.370Z,99032.66
2022-11-03T21:12:28.971Z,99038.19
2022-11-03T21:15:13.560Z,99042.06
2022-11-03T21:17:55.534Z,99045.75
2022-11-03T21:20:26.297Z,99050.94
2022-11-03T21:22:55.950Z,99052.50
2022-11-03T21:25:26.157Z,99046.16
2022-11-03T21:27:56.282Z,99052.28
2022-11-03T21:30:28.486Z,99046.91
2022-11-03T21:32:58.045Z,99043.34
2022-11-03T21:35:27.791Z,99055.69
2022-11-03T21:37:57.430Z,99059.91
2022-11-03T21:40:27.039Z,99052.94
2022-11-03T21:43:09.315Z,99050.91
2022-11-03T21:45:41.436Z,99061.34
2022-11-03T21:48:23.751Z,99058.63
2022-11-03T21:50:53.688Z,99053.22
2022-11-03T21:53:23.295Z,99063.22
2022-11-03T21:55:53.578Z,99061.47
2022-11-03T21:58:23.140Z,99068.56
2022-11-03T22:00:55.341Z,99051.97
2022-11-03T22:03:25.387Z,99054.63
2022-11-03T22:05:55.044Z,99066.28
2022-11-03T22:08:24.607Z,99069.84
2022-11-03T22:10:54.163Z,99065.19
2022-11-03T22:13:23.778Z,99056.06
2022-11-03T22:16:09.338Z,99061.34
2022-11-03T22:18:38.903Z,99070.03
2022-11-03T22:21:21.225Z,99064.13
2022-11-03T22:24:08.949Z,99050.47
2022-11-03T22:26:51.007Z,99065.47
2022-11-03T22:29:33.070Z,99075.31
2022-11-03T22:32:06.122Z,99085.88
2022-11-03T22:34:48.126Z,99070.03
2022-11-03T22:37:17.673Z,99070.63
2022-11-03T22:39:59.745Z,99081.00
2022-11-03T22:42:41.751Z,99090.63
2022-11-03T22:45:24.542Z,99094.53
2022-11-03T22:47:57.484Z,99103.03
2022-11-03T22:50:27.267Z,99101.75
2022-11-03T22:52:56.866Z,99113.72
2022-11-03T22:55:23.962Z,99110.50
2022-11-03T22:57:53.533Z,99115.50
2022-11-03T23:00:23.713Z,99114.13
2022-11-03T23:02:58.550Z,99135.91
2022-11-03T23:05:28.145Z,99130.09
2022-11-03T23:07:57.664Z,99146.81
2022-11-03T23:10:31.202Z,99142.28
2022-11-03T23:13:00.789Z,99143.84
2022-11-03T23:15:40.775Z,99153.25
2022-11-03T23:18:25.434Z,99158.16
2022-11-03T23:21:09.906Z,99166.25
2022-11-03T23:23:53.536Z,99173.13
2022-11-03T23:26:23.662Z,99164.25
2022-11-03T23:28:53.398Z,99172.28
2022-11-03T23:31:23.084Z,99174.81
2022-11-03T23:33:55.320Z,99166.81
2022-11-03T23:36:25.016Z,99176.41
2022-11-03T23:38:54.787Z,99185.28
2022-11-03T23:41:24.388Z,99188.88
2022-11-03T23:43:54.030Z,99202.47
2022-11-03T23:46:37.198Z,99215.44
2022-11-03T23:49:09.819Z,99231.19
2022-11-03T23:51:39.835Z,99222.63
2022-11-03T23:54:11.266Z,99218.91
2022-11-03T23:56:54.411Z,99231.78
2022-11-03T23:59:24.574Z,99237.03
